Time;durP1;ratioP1;P1;durP2;ratioP2;P2;SDS_P1;SDS_P2;PMS_P1;PMS_P2;Temp;Humidity;BMP_temperature;BMP_pressure;BME280_temperature;BME280_humidity;BME280_pressure;Samples;Min_cycle;Max_cycle;Signal;HPM_P1;HPM_P2
2022/10/29 00:02:10;;;;;;;13.30;6.80;;;;;;;41.72;37.17;101056.03;4994857;28;20883;-72
2022/10/29 00:04:36;;;;;;;20.83;7.37;;;;;;;41.97;36.63;101048.88;4975550;28;20488;-69
2022/10/29 00:07:02;;;;;;;11.80;7.00;;;;;;;41.89;36.37;101047.81;4991628;28;20464;-70
2022/10/29 00:09:28;;;;;;;17.50;7.73;;;;;;;41.68;36.74;101049.63;4997750;28;20444;-71
2022/10/29 00:11:54;;;;;;;10.47;6.43;;;;;;;42.09;36.14;101047.03;4999074;28;20413;-70
2022/10/29 00:14:20;;;;;;;20.03;8.30;;;;;;;42.35;35.65;101040.63;4994273;28;20532;-70
2022/10/29 00:16:46;;;;;;;18.10;7.37;;;;;;;42.00;36.46;101037.31;4995887;28;20432;-70
2022/10/29 00:19:12;;;;;;;20.80;8.53;;;;;;;42.05;36.30;101037.94;4993848;28;20206;-71
2022/10/29 00:21:39;;;;;;;14.70;6.73;;;;;;;41.90;36.29;101033.03;4993672;28;20552;-69
2022/10/29 00:24:05;;;;;;;10.20;5.83;;;;;;;42.14;35.71;101027.75;4992525;28;20210;-70
2022/10/29 00:26:32;;;;;;;13.50;6.20;;;;;;;42.32;35.92;101031.19;4995103;28;20437;-70
2022/10/29 00:28:58;;;;;;;13.93;6.87;;;;;;;42.32;35.46;101028.47;4993531;28;20460;-71
2022/10/29 00:31:24;;;;;;;16.37;8.03;;;;;;;42.38;35.15;101032.56;5008830;28;20797;-71
2022/10/29 00:33:53;;;;;;;18.03;6.73;;;;;;;42.52;34.92;101034.22;5003301;28;20417;-71
2022/10/29 00:36:21;;;;;;;15.07;7.43;;;;;;;42.51;34.80;101036.16;4987521;28;20476;-72
2022/10/29 00:38:48;;;;;;;18.90;6.90;;;;;;;42.39;34.75;101031.44;4985002;28;20440;-71
2022/10/29 00:41:27;;;;;;;11.63;6.47;;;;;;;42.45;34.74;101033.97;5005241;28;21042;-72
2022/10/29 00:44:21;;;;;;;16.97;7.70;;;;;;;42.14;35.48;101032.41;5001867;28;20440;-71
2022/10/29 00:46:55;;;;;;;12.70;6.13;;;;;;;42.35;34.69;101022.31;4992402;28;20449;-71
2022/10/29 00:49:23;;;;;;;15.17;7.83;;;;;;;42.47;34.32;101018.84;5004861;28;20464;-70
2022/10/29 00:51:50;;;;;;;9.83;6.07;;;;;;;42.08;34.59;101023.63;5002091;28;20428;-72
2022/10/29 00:54:17;;;;;;;22.10;7.40;;;;;;;42.37;34.42;101022.00;5004592;28;20424;-72
2022/10/29 00:56:50;;;;;;;21.07;8.80;;;;;;;42.24;34.52;101023.88;5004134;28;20430;-72
2022/10/29 00:59:17;;;;;;;19.63;6.53;;;;;;;42.35;34.32;101022.31;4972201;28;20452;-71
2022/10/29 01:01:45;;;;;;;13.00;6.37;;;;;;;42.13;34.52;101009.00;5006455;28;20508;-71
2022/10/29 01:04:12;;;;;;;16.23;7.53;;;;;;;42.29;34.04;101010.03;5003906;28;20827;-71
2022/10/29 01:06:44;;;;;;;22.60;7.17;;;;;;;42.38;34.13;100996.34;5007351;28;20441;-70
2022/10/29 01:09:10;;;;;;;16.73;8.00;;;;;;;42.30;34.06;101000.72;4970502;28;20429;-70
2022/10/29 01:11:54;;;;;;;21.63;7.53;;;;;;;42.17;33.81;100996.31;5007263;28;20436;-71
2022/10/29 01:14:45;;;;;;;16.60;8.27;;;;;;;42.09;34.04;100995.25;4978085;28;20947;-70
2022/10/29 01:17:50;;;;;;;17.07;7.33;;;;;;;42.22;33.69;100984.44;4994984;28;20930;-70
2022/10/29 01:20:53;;;;;;;20.17;7.40;;;;;;;42.33;33.56;100989.16;4993540;28;20494;-69
2022/10/29 01:23:28;;;;;;;17.30;9.17;;;;;;;42.49;33.34;100985.81;4994017;28;20432;-70
2022/10/29 01:25:57;;;;;;;19.80;7.20;;;;;;;42.53;33.41;100984.00;4987934;28;20814;-70
2022/10/29 01:29:00;;;;;;;14.57;8.83;;;;;;;42.42;33.32;100982.81;4994904;28;20432;-71
2022/10/29 01:31:50;;;;;;;23.10;7.43;;;;;;;42.53;33.16;100979.34;4989590;28;20418;-70
2022/10/29 01:34:30;;;;;;;16.33;7.00;;;;;;;42.40;33.09;100973.03;4973051;28;20428;-71
2022/10/29 01:37:27;;;;;;;17.60;8.77;;;;;;;42.40;33.14;100959.41;4994329;28;20460;-70
2022/10/29 01:40:00;;;;;;;12.70;7.30;;;;;;;42.49;32.87;100962.06;4992713;28;20425;-70
2022/10/29 01:42:45;;;;;;;18.60;8.10;;;;;;;42.36;33.16;100957.72;4973782;28;20426;-70
2022/10/29 01:45:14;;;;;;;22.03;7.23;;;;;;;42.52;32.76;100966.03;4992118;28;20507;-70
2022/10/29 01:47:46;;;;;;;10.63;8.03;;;;;;;42.61;32.54;100961.34;4994623;28;20426;-70
2022/10/29 01:50:17;;;;;;;28.37;8.70;;;;;;;42.62;32.83;100957.47;4972900;28;20876;-70
2022/10/29 01:52:45;;;;;;;16.97;7.53;;;;;;;42.58;33.26;100951.09;4992947;28;20441;-70
2022/10/29 01:55:33;;;;;;;26.07;8.13;;;;;;;42.59;33.04;100949.94;4992730;28;20421;-70
2022/10/29 01:58:04;;;;;;;17.77;7.27;;;;;;;42.55;33.20;100949.81;4992957;28;20520;-71
2022/10/29 02:01:07;;;;;;;28.77;7.77;;;;;;;42.58;33.09;100951.09;4992696;28;20485;-71
2022/10/29 02:04:16;;;;;;;15.03;7.80;;;;;;;42.59;33.51;100939.03;4992682;28;20504;-70
2022/10/29 02:06:58;;;;;;;16.57;6.50;;;;;;;42.56;33.22;100935.03;4973785;28;20533;-70
2022/10/29 02:09:30;;;;;;;18.40;6.33;;;;;;;42.68;33.48;100938.97;4994071;28;20433;-72
2022/10/29 02:12:05;;;;;;;12.87;7.07;;;;;;;42.64;33.54;100936.91;4992504;28;20410;-70
2022/10/29 02:14:50;;;;;;;19.87;7.00;;;;;;;42.52;33.69;100936.03;4992326;28;20457;-70
2022/10/29 02:17:17;;;;;;;15.33;6.63;;;;;;;42.56;33.93;100939.69;4974351;28;20426;-71
2022/10/29 02:19:43;;;;;;;20.27;7.60;;;;;;;42.54;34.14;100942.78;4992954;28;20441;-70
2022/10/29 02:22:09;;;;;;;14.33;5.47;;;;;;;42.43;34.13;100938.06;4992544;28;20461;-70
2022/10/29 02:24:35;;;;;;;10.33;6.17;;;;;;;42.49;33.57;100939.47;4992538;28;20436;-70
2022/10/29 02:27:01;;;;;;;11.30;6.50;;;;;;;42.44;34.20;100934.22;4992428;28;20500;-70
2022/10/29 02:29:27;;;;;;;14.27;7.63;;;;;;;42.44;33.78;100931.47;4992233;28;20445;-70
2022/10/29 02:31:53;;;;;;;10.27;6.00;;;;;;;42.55;33.62;100927.19;4992220;28;20487;-70
2022/10/29 02:34:18;;;;;;;17.07;8.17;;;;;;;42.66;33.21;100925.63;4992297;28;20178;-71
2022/10/29 02:36:44;;;;;;;11.13;6.50;;;;;;;42.53;34.04;100916.59;4986422;28;20227;-69
2022/10/29 02:39:10;;;;;;;18.87;9.10;;;;;;;42.66;33.79;100922.91;4985587;28;20317;-70
2022/10/29 02:41:36;;;;;;;15.73;8.50;;;;;;;42.46;34.12;100908.19;4991847;28;20893;-70
2022/10/29 02:44:02;;;;;;;18.77;6.83;;;;;;;42.45;34.35;100909.31;4992098;28;20484;-70
2022/10/29 02:46:29;;;;;;;13.00;7.47;;;;;;;42.55;34.38;100910.84;4991784;28;20568;-70
2022/10/29 02:48:55;;;;;;;13.00;7.70;;;;;;;42.50;34.33;100911.84;4992062;28;20436;-69
2022/10/29 02:51:21;;;;;;;21.43;8.67;;;;;;;42.37;34.05;100904.75;4992048;28;20625;-70
2022/10/29 02:53:46;;;;;;;10.90;6.53;;;;;;;42.26;34.57;100904.38;4991795;28;20448;-70
2022/10/29 02:56:12;;;;;;;19.03;7.63;;;;;;;42.38;34.18;100901.69;4991818;28;20426;-70
2022/10/29 02:58:38;;;;;;;18.93;6.70;;;;;;;42.53;33.74;100902.19;4991603;28;20780;-71
2022/10/29 03:01:05;;;;;;;19.80;7.70;;;;;;;42.44;34.19;100899.56;4992939;28;20457;-71
2022/10/29 03:03:31;;;;;;;21.43;8.03;;;;;;;42.44;34.42;100896.81;4992947;28;20423;-70
2022/10/29 03:05:57;;;;;;;20.57;7.00;;;;;;;42.50;34.31;100890.03;4991870;28;20453;-70
2022/10/29 03:08:23;;;;;;;16.77;8.17;;;;;;;42.07;34.87;100890.44;4992089;28;20426;-70
2022/10/29 03:10:49;;;;;;;12.10;7.87;;;;;;;42.09;34.63;100897.13;4975033;28;20422;-70
2022/10/29 03:13:16;;;;;;;15.30;8.33;;;;;;;42.04;34.91;100899.25;4984006;28;20801;-71
2022/10/29 03:15:44;;;;;;;22.63;7.97;;;;;;;41.91;35.34;100901.13;4991142;28;21178;-71
2022/10/29 03:18:10;;;;;;;15.03;8.70;;;;;;;42.34;34.37;100899.97;4978687;28;20425;-69
2022/10/29 03:20:36;;;;;;;21.73;8.00;;;;;;;42.23;34.71;100896.06;4991577;28;20461;-70
2022/10/29 03:23:04;;;;;;;13.73;7.23;;;;;;;42.23;34.81;100902.31;4991642;28;20848;-70
2022/10/29 03:25:29;;;;;;;26.03;10.03;;;;;;;42.42;34.51;100898.28;4991906;28;21037;-71
2022/10/29 03:27:55;;;;;;;17.77;8.27;;;;;;;42.10;34.45;100895.19;4991468;28;20996;-71
2022/10/29 03:30:21;;;;;;;17.37;8.23;;;;;;;42.00;34.77;100892.91;4991612;28;20425;-70
2022/10/29 03:32:47;;;;;;;10.60;8.97;;;;;;;42.01;34.66;100897.22;4977712;28;20187;-70
2022/10/29 03:35:15;;;;;;;25.47;7.70;;;;;;;41.86;34.77;100899.41;5005694;28;20472;-70
2022/10/29 03:37:41;;;;;;;18.60;8.10;;;;;;;41.92;34.97;100904.66;5007658;28;20456;-70
2022/10/29 03:40:08;;;;;;;30.30;7.60;;;;;;;41.91;34.41;100905.78;4971883;28;20422;-71
2022/10/29 03:42:34;;;;;;;19.83;9.40;;;;;;;42.08;34.56;100902.91;4982967;28;20981;-70
2022/10/29 03:45:01;;;;;;;19.30;8.97;;;;;;;42.06;34.49;100910.63;4991252;28;20867;-72
2022/10/29 03:47:27;;;;;;;18.63;7.80;;;;;;;42.18;34.32;100908.00;4992973;28;20532;-72
2022/10/29 03:49:53;;;;;;;17.20;8.33;;;;;;;42.30;34.19;100913.50;4991361;28;20460;-71
2022/10/29 03:52:20;;;;;;;12.90;7.03;;;;;;;42.31;34.55;100917.81;4991275;28;20421;-71
2022/10/29 03:54:46;;;;;;;16.17;7.80;;;;;;;42.39;34.29;100922.38;4991406;28;20436;-70
2022/10/29 03:57:12;;;;;;;22.77;10.20;;;;;;;42.19;34.53;100923.22;4991197;28;20418;-70
2022/10/29 03:59:38;;;;;;;14.13;7.63;;;;;;;42.27;34.02;100919.59;4991378;28;20532;-70
2022/10/29 04:02:04;;;;;;;14.37;8.20;;;;;;;42.47;33.82;100926.13;4971106;28;20545;-70
2022/10/29 04:04:30;;;;;;;16.47;9.10;;;;;;;42.40;34.17;100936.78;4981534;28;20487;-70
2022/10/29 04:06:56;;;;;;;12.50;6.73;;;;;;;42.18;34.55;100946.16;4991201;28;20771;-72
2022/10/29 04:09:22;;;;;;;14.33;7.27;;;;;;;42.44;34.34;100953.28;4991102;28;20846;-70
2022/10/29 04:11:48;;;;;;;18.53;7.30;;;;;;;42.37;34.02;100938.28;4992646;28;20224;-70
2022/10/29 04:14:14;;;;;;;22.60;9.67;;;;;;;42.45;33.61;100938.53;4993108;28;20976;-71
2022/10/29 04:16:40;;;;;;;13.17;6.90;;;;;;;42.49;33.70;100936.72;4994805;28;20417;-72
2022/10/29 04:19:06;;;;;;;18.60;9.03;;;;;;;42.53;33.83;100943.88;4975392;28;20425;-71
2022/10/29 04:21:32;;;;;;;21.67;9.13;;;;;;;42.55;33.74;100940.84;4994518;28;20600;-70
2022/10/29 04:23:58;;;;;;;16.50;8.20;;;;;;;42.56;34.25;100937.75;4994792;28;20915;-70
2022/10/29 04:26:24;;;;;;;18.93;8.43;;;;;;;42.53;34.25;100941.16;4994505;28;20448;-70
2022/10/29 04:28:50;;;;;;;20.17;8.67;;;;;;;42.33;34.77;100942.78;4994564;28;20806;-70
2022/10/29 04:31:17;;;;;;;17.60;7.80;;;;;;;42.24;35.06;100952.19;4995898;28;20793;-70
2022/10/29 04:33:43;;;;;;;15.47;8.90;;;;;;;42.00;35.81;100952.84;4994542;28;20429;-70
2022/10/29 04:36:10;;;;;;;17.37;8.07;;;;;;;42.17;35.23;100952.72;4994145;28;20473;-70
2022/10/29 04:38:36;;;;;;;15.70;7.00;;;;;;;42.21;35.14;100953.66;4994335;28;20417;-70
2022/10/29 04:41:03;;;;;;;17.50;7.30;;;;;;;42.35;34.91;100956.09;4994403;28;20453;-71
2022/10/29 04:43:29;;;;;;;26.20;9.07;;;;;;;42.26;35.09;100964.34;4994180;28;20468;-71
2022/10/29 04:45:58;;;;;;;16.13;8.37;;;;;;;42.29;35.04;100968.34;4994329;28;20413;-72
2022/10/29 04:48:25;;;;;;;16.43;8.23;;;;;;;42.28;34.77;100974.91;4994075;28;20428;-72
2022/10/29 04:50:52;;;;;;;17.03;7.90;;;;;;;42.01;35.42;100963.41;4994235;28;20414;-71
2022/10/29 04:53:19;;;;;;;19.03;9.87;;;;;;;41.86;35.87;100953.09;4995324;28;20421;-71
2022/10/29 04:55:45;;;;;;;12.50;7.07;;;;;;;42.07;35.34;100955.84;4994155;28;20475;-70
2022/10/29 04:58:14;;;;;;;16.90;8.93;;;;;;;42.27;35.00;100963.22;4974688;28;20480;-70
2022/10/29 05:00:40;;;;;;;17.23;8.13;;;;;;;42.34;34.51;100960.75;4980754;28;20472;-70
2022/10/29 05:03:06;;;;;;;16.47;9.00;;;;;;;42.32;34.62;100967.69;4994011;28;20425;-70
2022/10/29 05:05:32;;;;;;;28.83;8.50;;;;;;;42.06;34.80;100954.25;4995025;28;20438;-72
2022/10/29 05:08:00;;;;;;;19.93;7.90;;;;;;;41.90;34.84;100951.31;4994241;28;20428;-72
2022/10/29 05:10:29;;;;;;;18.67;9.10;;;;;;;41.82;34.96;100955.69;4993652;28;20422;-72
2022/10/29 05:12:59;;;;;;;15.00;7.03;;;;;;;41.81;35.07;100959.56;4993749;28;20421;-71
2022/10/29 05:15:25;;;;;;;23.27;8.77;;;;;;;41.77;35.24;100955.88;4995254;28;20511;-73
2022/10/29 05:17:51;;;;;;;22.47;8.50;;;;;;;41.93;34.83;100963.47;4994722;28;20417;-72
2022/10/29 05:20:17;;;;;;;16.50;8.33;;;;;;;42.11;34.67;100959.47;4993982;28;20925;-70
2022/10/29 05:22:43;;;;;;;22.73;8.57;;;;;;;42.19;34.70;100960.59;4993762;28;20948;-69
2022/10/29 05:25:09;;;;;;;25.63;8.47;;;;;;;42.04;35.09;100956.47;4993377;28;20923;-70
2022/10/29 05:27:34;;;;;;;16.20;8.20;;;;;;;42.10;34.91;100957.88;4993579;28;20428;-71
2022/10/29 05:30:00;;;;;;;19.93;8.50;;;;;;;42.16;34.72;100959.31;4992875;28;20182;-70
2022/10/29 05:32:30;;;;;;;25.23;9.90;;;;;;;42.02;35.00;100953.31;4992778;28;20186;-70
2022/10/29 05:34:56;;;;;;;24.93;9.73;;;;;;;42.03;34.42;100952.16;4992383;28;20455;-70
2022/10/29 05:37:26;;;;;;;16.57;9.10;;;;;;;42.01;34.43;100955.22;4974356;28;20483;-71
2022/10/29 05:39:53;;;;;;;15.80;9.90;;;;;;;41.99;34.53;100949.31;4992640;28;20429;-71
2022/10/29 05:42:19;;;;;;;18.27;8.73;;;;;;;42.03;34.88;100955.69;4973928;28;20473;-70
2022/10/29 05:44:45;;;;;;;16.63;7.47;;;;;;;42.04;34.48;100964.66;4992547;28;20437;-70
2022/10/29 05:47:11;;;;;;;25.17;8.87;;;;;;;41.82;34.68;100969.31;4992350;28;20547;-70
2022/10/29 05:49:37;;;;;;;21.67;9.80;;;;;;;42.09;34.40;100973.44;5009188;28;20469;-70
2022/10/29 05:52:03;;;;;;;20.40;8.13;;;;;;;41.92;34.68;100979.00;4994779;28;20424;-74
2022/10/29 05:54:29;;;;;;;19.73;9.00;;;;;;;41.83;34.77;100981.00;5001638;28;20444;-71
2022/10/29 05:56:56;;;;;;;18.57;8.07;;;;;;;41.75;34.68;100979.94;5008897;28;20433;-70
2022/10/29 05:59:22;;;;;;;20.53;8.20;;;;;;;41.88;35.19;100990.94;4977367;28;20426;-71
2022/10/29 06:01:48;;;;;;;29.50;9.70;;;;;;;41.82;34.62;100998.50;4993441;28;20463;-70
2022/10/29 06:04:14;;;;;;;19.40;8.60;;;;;;;41.90;34.38;101005.00;4993548;28;20496;-71
2022/10/29 06:06:40;;;;;;;18.77;9.60;;;;;;;41.74;34.95;101002.88;4977468;28;20751;-70
2022/10/29 06:09:06;;;;;;;16.83;8.60;;;;;;;41.97;34.50;100997.09;4993435;28;20744;-70
2022/10/29 06:11:32;;;;;;;16.53;10.23;;;;;;;42.01;34.37;100992.59;4994650;28;20967;-71
2022/10/29 06:13:58;;;;;;;32.53;9.57;;;;;;;42.17;34.51;100999.06;4994457;28;20453;-72
2022/10/29 06:16:24;;;;;;;21.07;11.63;;;;;;;41.42;34.98;101003.47;4978420;28;20260;-72
2022/10/29 06:18:50;;;;;;;19.00;10.00;;;;;;;41.82;34.84;101002.00;4992240;28;20441;-72
2022/10/29 06:21:16;;;;;;;26.27;10.37;;;;;;;41.82;34.96;101010.19;4991990;28;20902;-72
2022/10/29 06:23:42;;;;;;;11.33;8.20;;;;;;;42.06;34.45;101015.00;5002269;28;20991;-72
2022/10/29 06:26:08;;;;;;;16.53;8.30;;;;;;;41.93;34.69;101009.78;5003685;28;20412;-69
2022/10/29 06:28:34;;;;;;;31.23;7.97;;;;;;;41.84;34.59;100999.75;4999008;28;20958;-71
2022/10/29 06:31:00;;;;;;;20.20;9.30;;;;;;;41.29;35.65;101014.22;5003669;28;20466;-70
2022/10/29 06:33:26;;;;;;;20.63;9.17;;;;;;;41.86;35.38;101021.19;4998557;28;20472;-70
2022/10/29 06:35:51;;;;;;;21.07;7.27;;;;;;;42.27;34.75;101019.69;5002454;28;20546;-71
2022/10/29 06:38:17;;;;;;;14.97;9.33;;;;;;;42.19;34.60;101026.00;5001329;28;20413;-71
2022/10/29 06:40:54;;;;;;;19.20;7.97;;;;;;;42.25;34.83;101021.94;4998056;28;20472;-70
2022/10/29 06:43:20;;;;;;;17.00;9.07;;;;;;;42.35;34.72;101027.78;4998792;28;20795;-70
2022/10/29 06:45:48;;;;;;;19.00;7.83;;;;;;;42.45;34.35;101039.41;5000783;28;20810;-71
2022/10/29 06:48:14;;;;;;;23.93;12.13;;;;;;;42.31;34.59;101037.78;4995443;28;20484;-70
2022/10/29 06:50:40;;;;;;;19.20;9.27;;;;;;;42.39;34.35;101036.09;5009246;28;20448;-70
2022/10/29 06:53:10;;;;;;;19.90;8.40;;;;;;;42.10;34.70;101042.38;5008844;28;20465;-70
2022/10/29 06:55:36;;;;;;;20.43;9.27;;;;;;;42.42;34.41;101042.81;5006568;28;20431;-72
2022/10/29 06:58:16;;;;;;;26.80;8.50;;;;;;;42.48;34.29;101046.91;5010249;28;20486;-71
2022/10/29 07:00:43;;;;;;;23.07;10.30;;;;;;;41.78;35.24;101041.94;4986621;28;20543;-70
2022/10/29 07:03:13;;;;;;;23.80;8.53;;;;;;;41.55;35.67;101038.63;5000366;28;20424;-70
2022/10/29 07:05:39;;;;;;;19.80;8.70;;;;;;;41.69;35.15;101038.44;4991192;28;20445;-70
2022/10/29 07:08:05;;;;;;;15.23;8.00;;;;;;;41.53;35.08;101040.91;4993077;28;20423;-71
2022/10/29 07:10:32;;;;;;;26.50;8.20;;;;;;;41.54;35.36;101042.50;4992516;28;20945;-70
2022/10/29 07:12:59;;;;;;;19.90;10.23;;;;;;;41.29;35.51;101046.88;4964742;28;20930;-70
2022/10/29 07:15:25;;;;;;;18.57;9.93;;;;;;;41.47;35.66;101044.13;4988586;28;20846;-71
2022/10/29 07:17:55;;;;;;;34.10;8.80;;;;;;;42.07;34.20;101054.75;4987059;28;20420;-69
2022/10/29 07:20:22;;;;;;;41.63;29.07;;;;;;;42.17;34.65;101063.69;4981007;28;20482;-68
2022/10/29 07:22:48;;;;;;;27.60;14.53;;;;;;;42.21;34.79;101065.41;4991717;28;20425;-70
2022/10/29 07:25:14;;;;;;;20.60;12.23;;;;;;;42.17;34.42;101069.94;4990115;28;20421;-69
2022/10/29 07:27:40;;;;;;;17.90;8.20;;;;;;;42.16;34.03;101075.69;4990219;28;20440;-69
2022/10/29 07:30:06;;;;;;;16.07;8.37;;;;;;;42.35;34.37;101073.34;4993361;28;20457;-69
2022/10/29 07:32:32;;;;;;;23.90;10.83;;;;;;;42.01;34.81;101077.06;4998263;28;20419;-68
2022/10/29 07:34:58;;;;;;;14.33;8.40;;;;;;;42.36;34.00;101080.41;4999040;28;20799;-70
2022/10/29 07:37:24;;;;;;;19.13;8.03;;;;;;;42.39;34.18;101080.53;4989547;28;20193;-70
2022/10/29 07:39:50;;;;;;;31.47;10.90;;;;;;;42.37;34.41;101085.53;5008755;28;20425;-70
2022/10/29 07:42:15;;;;;;;21.70;10.73;;;;;;;41.43;35.97;101089.47;4995216;28;20264;-74
2022/10/29 07:44:41;;;;;;;17.00;10.60;;;;;;;41.97;35.60;101087.03;4999130;28;20420;-73
2022/10/29 07:47:07;;;;;;;22.47;10.63;;;;;;;42.20;34.71;101090.28;4994959;28;20232;-70
2022/10/29 07:49:33;;;;;;;19.17;10.57;;;;;;;42.30;34.69;101093.44;5003104;28;20808;-71
2022/10/29 07:51:59;;;;;;;24.07;12.97;;;;;;;42.20;34.91;101096.53;4997660;28;20429;-71
2022/10/29 07:54:25;;;;;;;29.40;12.53;;;;;;;42.10;34.67;101091.44;5001122;28;20524;-71
2022/10/29 07:56:52;;;;;;;18.57;11.80;;;;;;;41.69;35.98;101094.84;5000292;28;20467;-73
2022/10/29 07:59:18;;;;;;;31.83;11.63;;;;;;;41.95;35.06;101100.97;4997368;28;20432;-70
2022/10/29 08:01:45;;;;;;;21.40;11.67;;;;;;;42.28;34.64;101092.94;4989503;28;20592;-70
2022/10/29 08:04:12;;;;;;;33.27;12.17;;;;;;;42.28;34.14;101098.41;4994240;28;20428;-71
2022/10/29 08:06:38;;;;;;;32.80;11.03;;;;;;;42.51;33.97;101085.25;4993836;28;20452;-71
2022/10/29 08:09:05;;;;;;;15.10;9.07;;;;;;;42.58;33.67;101095.66;4995164;28;20409;-72
2022/10/29 08:11:31;;;;;;;16.27;8.47;;;;;;;42.77;33.42;101104.16;4993556;28;20795;-71
2022/10/29 08:13:58;;;;;;;23.53;9.57;;;;;;;41.66;35.10;101101.72;4992717;28;20414;-71
2022/10/29 08:16:24;;;;;;;15.97;8.93;;;;;;;42.48;33.98;101102.28;4994303;28;20421;-71
2022/10/29 08:18:51;;;;;;;21.00;11.57;;;;;;;42.35;34.24;101104.13;4993975;28;20444;-71
2022/10/29 08:21:17;;;;;;;16.13;9.60;;;;;;;42.17;34.87;101104.56;4994010;28;20456;-75
2022/10/29 08:23:43;;;;;;;19.57;8.80;;;;;;;42.23;34.55;101105.97;4993995;28;20429;-73
2022/10/29 08:26:10;;;;;;;18.93;8.47;;;;;;;42.39;34.01;101107.00;4994841;28;20469;-71
2022/10/29 08:28:36;;;;;;;22.07;10.50;;;;;;;42.37;34.07;101107.34;4994243;28;20432;-70
2022/10/29 08:31:01;;;;;;;20.43;11.73;;;;;;;42.48;34.26;101112.38;4993730;28;20972;-75
2022/10/29 08:33:27;;;;;;;22.23;10.80;;;;;;;42.25;34.31;101109.19;4994068;28;20445;-73
2022/10/29 08:35:53;;;;;;;25.93;9.13;;;;;;;42.46;34.16;101107.25;4995180;28;20465;-77
2022/10/29 08:38:22;;;;;;;27.23;11.30;;;;;;;42.55;34.14;101118.13;4993838;28;20533;-73
2022/10/29 08:41:07;;;;;;;22.07;11.23;;;;;;;42.07;34.95;101116.63;4993495;28;20811;-74
2022/10/29 08:43:54;;;;;;;27.93;13.80;;;;;;;42.21;34.83;101119.94;4993798;28;20425;-71
2022/10/29 08:46:51;;;;;;;26.87;11.40;;;;;;;41.78;34.83;101120.13;4991904;28;20421;-72
2022/10/29 08:49:28;;;;;;;23.10;9.67;;;;;;;42.19;34.98;101116.75;4994707;28;20429;-71
2022/10/29 08:52:06;;;;;;;21.53;9.60;;;;;;;42.01;34.53;101117.94;5002106;28;20445;-75
2022/10/29 08:54:36;;;;;;;18.73;9.97;;;;;;;42.21;34.14;101114.47;5007990;28;20807;-72
2022/10/29 08:57:13;;;;;;;20.43;9.37;;;;;;;42.57;33.48;101115.84;5005018;28;20418;-72
2022/10/29 09:00:01;;;;;;;21.43;9.90;;;;;;;42.14;34.26;101125.09;4997751;28;20823;-72
2022/10/29 09:02:28;;;;;;;22.10;10.13;;;;;;;42.38;34.59;101122.56;4988791;28;20480;-72
2022/10/29 09:04:55;;;;;;;16.40;9.47;;;;;;;42.64;33.61;101127.06;4996426;28;20970;-72
2022/10/29 09:07:36;;;;;;;18.70;8.30;;;;;;;42.98;33.18;101125.16;4994549;28;20417;-71
2022/10/29 09:10:22;;;;;;;21.00;8.57;;;;;;;42.73;33.40;101127.78;4993293;28;20828;-72
2022/10/29 09:13:27;;;;;;;24.53;9.40;;;;;;;42.67;33.32;101125.59;4992389;28;20507;-71
2022/10/29 09:16:11;;;;;;;14.53;7.40;;;;;;;42.30;33.99;101131.59;4996106;28;20902;-71
2022/10/29 09:19:05;;;;;;;17.00;9.67;;;;;;;42.72;33.69;101128.91;4980529;28;20825;-71
2022/10/29 09:21:45;;;;;;;19.10;7.97;;;;;;;42.77;33.63;101131.44;5000810;28;20560;-71
2022/10/29 09:24:39;;;;;;;14.30;7.57;;;;;;;42.67;33.66;101128.34;4990985;28;20433;-70
2022/10/29 09:27:42;;;;;;;16.83;7.80;;;;;;;42.43;33.85;101134.41;4976245;28;20406;-73
2022/10/29 09:30:19;;;;;;;18.57;8.30;;;;;;;42.37;34.19;101137.31;4979999;28;20433;-74
2022/10/29 09:32:55;;;;;;;15.20;7.63;;;;;;;42.82;33.73;101139.41;4999796;28;20412;-73
2022/10/29 09:35:21;;;;;;;15.70;7.93;;;;;;;42.89;33.48;101136.94;4994111;28;20480;-71
2022/10/29 09:37:53;;;;;;;15.03;7.57;;;;;;;42.51;33.46;101134.34;5008424;28;20510;-73
2022/10/29 09:40:30;;;;;;;15.10;7.23;;;;;;;42.88;33.33;101134.56;4999626;28;20435;-73
2022/10/29 09:42:59;;;;;;;17.47;7.93;;;;;;;42.85;33.56;101135.25;5007342;28;20952;-72
2022/10/29 09:45:41;;;;;;;19.20;11.10;;;;;;;42.86;33.67;101128.66;4987380;28;20433;-72
2022/10/29 09:48:19;;;;;;;18.87;7.60;;;;;;;42.79;33.51;101133.84;5007595;28;21011;-73
2022/10/29 09:51:14;;;;;;;17.50;10.20;;;;;;;42.74;33.59;101131.31;5004018;28;20413;-74
2022/10/29 09:53:40;;;;;;;15.47;7.90;;;;;;;42.99;33.44;101124.88;5002456;28;20645;-73
2022/10/29 09:56:08;;;;;;;19.23;8.00;;;;;;;43.04;33.26;101126.59;5006906;28;20519;-74
2022/10/29 09:58:38;;;;;;;25.33;9.90;;;;;;;42.99;33.45;101122.13;5002880;28;20799;-74
2022/10/29 10:01:04;;;;;;;22.20;9.63;;;;;;;42.74;33.57;101109.50;4988585;28;20529;-72
2022/10/29 10:03:40;;;;;;;14.13;6.87;;;;;;;42.92;33.35;101119.13;4988685;28;20435;-75
2022/10/29 10:06:12;;;;;;;11.93;6.83;;;;;;;42.78;33.56;101113.13;5005973;28;20439;-72
2022/10/29 10:09:00;;;;;;;24.50;11.03;;;;;;;42.91;33.30;101107.41;4988536;28;20471;-73
2022/10/29 10:11:41;;;;;;;19.77;9.80;;;;;;;43.16;33.21;101112.97;4990729;28;20423;-72
2022/10/29 10:14:16;;;;;;;20.40;9.03;;;;;;;42.62;33.62;101110.22;4993415;28;20576;-72
2022/10/29 10:16:43;;;;;;;18.27;7.53;;;;;;;42.94;33.19;101111.38;4993376;28;20413;-72
2022/10/29 10:19:42;;;;;;;21.37;10.17;;;;;;;42.79;33.71;101106.56;4973573;28;20418;-73
2022/10/29 10:22:18;;;;;;;16.70;7.07;;;;;;;42.96;33.26;101100.13;4962724;28;20533;-71
2022/10/29 10:24:44;;;;;;;17.23;8.90;;;;;;;42.73;33.29;101099.72;4990895;28;20429;-72
2022/10/29 10:27:19;;;;;;;28.27;9.70;;;;;;;42.88;33.37;101099.88;4972904;28;20586;-72
2022/10/29 10:30:03;;;;;;;11.23;6.93;;;;;;;42.77;33.56;101101.41;4990141;28;20177;-72
2022/10/29 10:32:29;;;;;;;17.70;8.30;;;;;;;42.97;33.72;101094.34;4992361;28;20479;-72
2022/10/29 10:34:55;;;;;;;13.40;8.27;;;;;;;43.03;33.21;101098.50;4993290;28;20421;-72
2022/10/29 10:37:21;;;;;;;22.53;6.90;;;;;;;42.74;34.12;101093.13;4972846;28;20414;-73
2022/10/29 10:39:51;;;;;;;26.57;8.53;;;;;;;42.81;33.74;101088.72;4988675;28;20457;-73
2022/10/29 10:42:31;;;;;;;19.73;6.93;;;;;;;42.87;33.72;101090.09;5000871;28;20460;-73
2022/10/29 10:45:22;;;;;;;18.30;8.60;;;;;;;42.97;33.44;101090.81;4995003;28;20796;-73
2022/10/29 10:47:56;;;;;;;14.93;7.53;;;;;;;42.90;33.66;101091.34;4992001;28;20421;-73
2022/10/29 10:50:29;;;;;;;22.57;7.70;;;;;;;42.79;33.66;101080.06;4991898;28;20476;-73
2022/10/29 10:53:02;;;;;;;18.80;8.40;;;;;;;42.51;33.83;101077.06;4991964;28;20508;-73
2022/10/29 10:55:32;;;;;;;23.67;8.57;;;;;;;42.54;33.91;101070.13;4991857;28;20428;-74
2022/10/29 10:58:15;;;;;;;18.53;7.73;;;;;;;42.91;33.40;101071.94;4992042;28;20794;-72
2022/10/29 11:00:56;;;;;;;31.47;7.77;;;;;;;43.06;32.87;101083.38;4993307;28;20421;-72
2022/10/29 11:03:31;;;;;;;25.40;9.00;;;;;;;42.82;32.88;101073.13;4978098;28;20422;-73
2022/10/29 11:06:10;;;;;;;20.70;10.30;;;;;;;42.98;32.89;101067.84;4991713;28;20444;-73
2022/10/29 11:08:41;;;;;;;14.30;7.63;;;;;;;42.99;32.73;101061.28;4991962;28;20471;-72
2022/10/29 11:11:14;;;;;;;20.80;8.53;;;;;;;42.86;33.63;101050.31;4991705;28;20444;-74
2022/10/29 11:13:42;;;;;;;18.30;7.00;;;;;;;42.82;33.82;101057.56;4991673;28;20428;-73
2022/10/29 11:16:36;;;;;;;26.63;8.40;;;;;;;42.88;33.21;101049.97;4978138;28;20418;-73
2022/10/29 11:19:18;;;;;;;21.53;9.40;;;;;;;43.22;33.14;101040.66;4991639;28;21145;-74
2022/10/29 11:22:21;;;;;;;22.73;7.87;;;;;;;43.26;32.76;101040.75;4981196;28;20453;-72
2022/10/29 11:25:17;;;;;;;13.53;6.87;;;;;;;43.40;32.75;101039.31;4977303;28;20965;-73
2022/10/29 11:28:21;;;;;;;27.93;8.30;;;;;;;42.99;32.75;101034.00;4988139;28;20449;-73
2022/10/29 11:31:13;;;;;;;31.37;8.80;;;;;;;43.16;32.72;101023.69;4992604;28;20425;-72
2022/10/29 11:34:04;;;;;;;20.83;9.40;;;;;;;43.40;32.80;101025.69;4956101;28;20422;-73
2022/10/29 11:36:38;;;;;;;19.77;7.97;;;;;;;43.01;32.93;101020.81;4972632;28;20500;-73